createdAt,value
2023-03-29T17:35:02.823Z,100424.31
2023-03-29T17:36:53.449Z,100426.37
2023-03-29T17:38:48.221Z,100425.05
2023-03-29T17:40:38.856Z,100425.16
2023-03-29T17:42:29.734Z,100427.91
2023-03-29T17:44:20.406Z,100426.52
2023-03-29T17:46:11.011Z,100429.45
2023-03-29T17:48:02.818Z,100426.71
2023-03-29T17:49:55.211Z,100431.33
2023-03-29T17:51:45.610Z,100426.45
2023-03-29T17:53:35.656Z,100426.57
2023-03-29T17:55:26.728Z,100427.30
2023-03-29T17:57:17.285Z,100432.36
2023-03-29T17:59:07.524Z,100435.91
2023-03-29T18:00:57.669Z,100434.35
2023-03-29T18:02:48.232Z,100436.05
2023-03-29T18:04:38.766Z,100435.11
2023-03-29T18:06:28.952Z,100439.69
2023-03-29T18:08:18.913Z,100439.30
2023-03-29T18:10:09.280Z,100437.11
2023-03-29T18:11:59.619Z,100437.96
2023-03-29T18:13:51.111Z,100435.08
2023-03-29T18:15:41.831Z,100439.91
2023-03-29T18:17:33.039Z,100438.07
2023-03-29T18:19:23.310Z,100439.28
2023-03-29T18:21:15.433Z,100442.79
2023-03-29T18:23:05.887Z,100443.45
2023-03-29T18:24:56.086Z,100444.90
2023-03-29T18:26:45.953Z,100447.18
2023-03-29T18:28:36.885Z,100448.52
2023-03-29T18:30:27.160Z,100449.87
2023-03-29T18:32:17.080Z,100450.19
2023-03-29T18:34:07.374Z,100447.30
2023-03-29T18:35:57.499Z,100446.41
2023-03-29T18:37:47.729Z,100442.27
2023-03-29T18:39:38.187Z,100443.94
2023-03-29T18:41:28.744Z,100439.11
2023-03-29T18:43:19.242Z,100439.03
2023-03-29T18:45:10.113Z,100441.95
2023-03-29T18:47:00.454Z,100446.08
2023-03-29T18:48:50.641Z,100443.72
2023-03-29T18:50:44.311Z,100442.17
2023-03-29T18:52:34.658Z,100436.10
2023-03-29T18:54:24.686Z,100437.91
2023-03-29T18:56:15.049Z,100441.36
2023-03-29T18:58:05.255Z,100439.35
2023-03-29T18:59:55.339Z,100436.30
2023-03-29T19:01:45.792Z,100430.21
2023-03-29T19:03:37.577Z,100427.18
2023-03-29T19:05:28.197Z,100429.09
2023-03-29T19:07:19.926Z,100427.27
2023-03-29T19:09:10.520Z,100426.06
2023-03-29T19:11:03.073Z,100421.91
2023-03-29T19:12:53.161Z,100422.13
2023-03-29T19:14:43.569Z,100425.58
2023-03-29T19:16:33.462Z,100424.83
2023-03-29T19:18:25.809Z,100423.55
2023-03-29T19:20:16.252Z,100426.61
2023-03-29T19:22:06.907Z,100426.01
2023-03-29T19:23:59.344Z,100427.39
2023-03-29T19:25:56.960Z,100424.34
2023-03-29T19:27:47.140Z,100425.05
2023-03-29T19:29:37.668Z,100425.33
2023-03-29T19:31:27.824Z,100422.70
2023-03-29T19:33:19.219Z,100422.36
2023-03-29T19:35:12.069Z,100422.26
2023-03-29T19:37:02.533Z,100422.43
2023-03-29T19:38:53.474Z,100420.69
2023-03-29T19:40:45.000Z,100416.92
2023-03-29T19:42:35.619Z,100414.17
2023-03-29T19:44:27.436Z,100412.48
2023-03-29T19:46:17.976Z,100411.18
2023-03-29T19:50:03.954Z,100410.23
2023-03-29T19:51:56.672Z,100407.80
2023-03-29T19:53:47.062Z,100405.31
2023-03-29T19:55:38.835Z,100407.58
2023-03-29T19:57:30.154Z,100405.49
2023-03-29T19:59:20.464Z,100406.98
2023-03-29T20:01:10.238Z,100401.83
2023-03-29T20:03:01.483Z,100398.59
2023-03-29T20:04:52.261Z,100398.55
2023-03-29T20:06:42.525Z,100395.64
2023-03-29T20:08:35.167Z,100393.46
2023-03-29T20:10:26.371Z,100390.50
2023-03-29T20:12:16.792Z,100395.50
2023-03-29T20:14:07.745Z,100391.66
2023-03-29T20:15:58.255Z,100387.98
2023-03-29T20:17:48.260Z,100387.15
2023-03-29T20:19:43.316Z,100385.95
2023-03-29T20:21:33.664Z,100384.04
2023-03-29T20:23:23.679Z,100385.52
2023-03-29T20:25:13.725Z,100386.23
2023-03-29T20:27:04.019Z,100386.89
2023-03-29T20:28:54.059Z,100390.11
2023-03-29T20:30:44.063Z,100395.25
2023-03-29T20:32:34.061Z,100393.23
2023-03-29T20:34:24.827Z,100390.59
2023-03-29T20:36:22.291Z,100393.02
2023-03-29T20:38:13.106Z,100384.95
2023-03-29T20:40:04.730Z,100386.75
2023-03-29T20:41:54.997Z,100386.31
2023-03-29T20:43:45.643Z,100385.73
2023-03-29T20:45:49.783Z,100384.30
2023-03-29T20:47:49.448Z,100380.14
2023-03-29T20:49:39.358Z,100376.17
2023-03-29T20:51:32.087Z,100377.45
2023-03-29T20:53:22.061Z,100372.98
2023-03-29T20:55:12.341Z,100371.24
2023-03-29T20:57:03.435Z,100368.30
2023-03-29T20:58:55.005Z,100368.23
2023-03-29T21:00:46.136Z,100369.66
2023-03-29T21:02:36.114Z,100369.93
2023-03-29T21:04:27.262Z,100361.34
2023-03-29T21:06:18.619Z,100361.61
2023-03-29T21:08:08.623Z,100359.29
2023-03-29T21:10:00.376Z,100364.00
2023-03-29T21:11:51.880Z,100360.61
2023-03-29T21:13:42.782Z,100356.45
2023-03-29T21:15:33.044Z,100355.13
2023-03-29T21:17:23.016Z,100351.96
2023-03-29T21:19:14.772Z,100346.15
2023-03-29T21:21:07.151Z,100343.16
2023-03-29T21:22:57.395Z,100335.92
2023-03-29T21:24:47.278Z,100333.27
2023-03-29T21:26:37.332Z,100335.20
2023-03-29T21:28:27.791Z,100334.20
2023-03-29T21:30:17.732Z,100331.17
2023-03-29T21:32:07.630Z,100334.67
2023-03-29T21:33:57.620Z,100330.23
2023-03-29T21:35:48.538Z,100326.13
2023-03-29T21:37:38.843Z,100326.20
2023-03-29T21:39:29.464Z,100323.29
2023-03-29T21:41:19.664Z,100323.13
2023-03-29T21:43:09.521Z,100321.45
2023-03-29T21:44:59.306Z,100321.12
2023-03-29T21:48:30.747Z,100321.45
2023-03-29T21:50:22.358Z,100319.98
2023-03-29T21:52:14.078Z,100317.60
2023-03-29T21:54:05.369Z,100316.56
2023-03-29T21:55:56.965Z,100314.86
2023-03-29T21:57:48.924Z,100312.52
2023-03-29T21:59:40.357Z,100311.52
2023-03-29T22:01:31.594Z,100305.84
2023-03-29T22:03:23.429Z,100302.36
2023-03-29T22:05:16.248Z,100303.06
2023-03-29T22:07:08.395Z,100299.98
2023-03-29T22:09:00.841Z,100294.83
2023-03-29T22:10:56.800Z,100295.91
2023-03-29T22:12:48.275Z,100290.20
2023-03-29T22:14:39.619Z,100288.79
2023-03-29T22:16:31.386Z,100287.05
2023-03-29T22:18:23.975Z,100288.43
2023-03-29T22:20:15.676Z,100286.64
2023-03-29T22:22:13.992Z,100289.73
2023-03-29T22:24:06.080Z,100285.58
2023-03-29T22:25:57.963Z,100283.42
2023-03-29T22:27:49.846Z,100280.75
2023-03-29T22:29:41.094Z,100277.31
2023-03-29T22:31:32.913Z,100274.88
2023-03-29T22:33:24.602Z,100271.84
2023-03-29T22:35:16.002Z,100264.96
2023-03-29T22:37:07.515Z,100266.56
2023-03-29T22:38:59.525Z,100266.41
2023-03-29T22:40:50.946Z,100268.48
2023-03-29T22:42:42.574Z,100267.42
2023-03-29T22:44:34.043Z,100269.31
2023-03-29T22:46:26.512Z,100268.21
2023-03-29T22:48:17.619Z,100272.15
2023-03-29T22:50:09.441Z,100269.39
2023-03-29T22:52:01.525Z,100262.24
2023-03-29T22:55:00.605Z,100264.51
2023-03-29T22:56:55.905Z,100260.16
2023-03-29T22:58:47.580Z,100254.88
2023-03-29T23:00:39.079Z,100255.52
2023-03-29T23:02:30.376Z,100255.23
2023-03-29T23:04:22.322Z,100251.14
2023-03-29T23:06:13.751Z,100248.85
2023-03-29T23:08:06.901Z,100246.02
2023-03-29T23:10:15.800Z,100243.29
2023-03-29T23:12:07.272Z,100246.52
2023-03-29T23:13:59.232Z,100240.27
2023-03-29T23:15:52.811Z,100235.54
2023-03-29T23:17:44.286Z,100237.83
2023-03-29T23:19:36.719Z,100234.70
2023-03-29T23:21:28.701Z,100239.40
2023-03-29T23:23:21.058Z,100233.60
2023-03-29T23:25:13.365Z,100236.19
2023-03-29T23:27:05.635Z,100231.89
2023-03-29T23:28:57.618Z,100237.95
2023-03-29T23:30:58.008Z,100237.75
2023-03-29T23:32:50.248Z,100237.71
2023-03-29T23:34:42.266Z,100239.09
2023-03-29T23:36:34.239Z,100232.71
2023-03-29T23:38:26.411Z,100239.19
2023-03-29T23:40:18.115Z,100233.27
2023-03-29T23:42:09.493Z,100231.79
2023-03-29T23:44:01.324Z,100231.27
2023-03-29T23:46:01.124Z,100228.89
2023-03-29T23:47:53.382Z,100228.31
2023-03-29T23:49:45.492Z,100225.52
2023-03-29T23:51:39.237Z,100224.87
2023-03-29T23:53:31.645Z,100227.77
2023-03-29T23:55:23.767Z,100222.77
2023-03-29T23:57:15.419Z,100216.02
2023-03-29T23:59:07.312Z,100218.66
